默认 日期 大小 文件数 浏览量 最新下载 xml
snatched磁力链接相关资源由用户搜索指令自动获取,结果来源于网络,本站不存储任何资料,亦不承担任何责任,请于24小时内删除,搜索到352个磁力,用时0ms。
    {"Snatched 2024 1080p WEBRip - SMILEY.mp4": 1478690287}
创建时间: 2024-06-17 12:55:04 大小:1.38 GB 文件数量:1 热度:8 最近下载:2025-09-17 12:18:01
    {"Snatched.jpg": 48078, "Snatched.m4b": 184318420}
创建时间: 2024-07-28 10:25:19 大小:175.83 MB 文件数量:2 热度:7 最近下载:2025-09-11 21:10:12
    {"Torrent Downloaded From XXXClub.to .nfo": 34, "onlyfans.2024.wu.mengmeng.xia.qingzi.the.bridesmaids.snatched.their.friends.groom.of.course.they.had.to.experience.it.first.xxx.mp4": 1244464618}
创建时间: 2024-11-07 09:40:03 大小:1.16 GB 文件数量:2 热度:23 最近下载:2025-09-16 19:33:04
    {"Snatched 2024 1080p WEBRip - SMILEY.mkv": 1006916564}
创建时间: 2024-12-25 09:43:04 大小:960.27 MB 文件数量:1 热度:6 最近下载:2025-09-15 15:09:02
    {"Snatched A Novella - Karin Slaughter.epub": 168431, "Snatched A Novella - Karin Slaughter.mobi": 216864}
创建时间: 2025-01-16 16:35:43 大小:376.26 KB 文件数量:2 热度:8 最近下载:2025-09-16 19:33:07
    {"Snatched - Gillian Jackson.jpg": 51619, "Snatched - Gillian Jackson.epub": 239836}
创建时间: 2025-01-26 10:32:16 大小:284.62 KB 文件数量:2 热度:4 最近下载:2025-09-11 21:10:19
    {"Sample": {"Sample.mkv": 34331271}, "Snatched.2017.720p.BluRay.DTS.ES.x264-iFT.mkv": 5231115867, "Snatched.2017.720p.BluRay.DTS.ES.x264-iFT.nfo": 741}
创建时间: 2025-02-18 17:10:43 大小:4.9 GB 文件数量:3 热度:6 最近下载:2025-09-18 17:59:04
    {"Snatched.2017.1080p.BDRip.AV1-DiN.mkv": 2274274233}
创建时间: 2025-03-09 18:55:26 大小:2.12 GB 文件数量:1 热度:10 最近下载:2025-09-19 01:20:05
    ... .png": 1899586, "screen0004.png": 1874970}, "snatched.2024.s01e03.1080p.web.h264 ... -cbfm.mkv": 2710863950, "snatched.2024.s01e03.1080p.web.h264 ...
创建时间: 2025-03-10 15:49:40 大小:2.53 GB 文件数量:7 热度:6 最近下载:2025-09-16 19:33:02
    ... .png": 1845476, "screen0004.png": 453537}, "snatched.2024.s01e02.1080p.web.h264 ... -cbfm.mkv": 2947490566, "snatched.2024.s01e02.1080p.web.h264 ...
创建时间: 2025-03-11 08:31:57 大小:2.75 GB 文件数量:7 热度:5 最近下载:2025-09-16 19:33:03
    {"Snatched.2017.1080P-Dual-Lat.mp4": 1558929086, "Descargar Películas, Series y Animes Gratis....url": 50}
创建时间: 2025-03-11 18:37:58 大小:1.45 GB 文件数量:2 热度:8 最近下载:2025-09-18 17:59:12
    {"To keep us going please read.txt": 232, "Snatched.2017.720p.WEB-DL.x264.AC3-Manning[EtHD].mkv": 2537937576}
创建时间: 2025-03-19 17:10:11 大小:2.36 GB 文件数量:2 热度:3 最近下载:2025-09-11 21:10:19
    {"sample.avi": 31477760, "Snatched.2017.HDRip.XviD.AC3-EVO.avi": 1419689682, "Torrent Downloaded From www.torrenting.com.txt": 73}
创建时间: 2025-04-22 13:34:38 大小:1.35 GB 文件数量:3 热度:5 最近下载:2025-09-16 19:33:05
    {"Torrent Downloaded From UIndex.org .txt": 129, "Snatched 2017 1080p DSNP WEB-DL DDP5 1 H 264-GPRS.mkv": 5040986067, "Snatched 2017 1080p DSNP WEB-DL DDP5 1 H 264-GPRS.mkv.nfo": 1076}
创建时间: 2025-09-08 08:51:50 大小:4.69 GB 文件数量:3 热度:2 最近下载:2025-09-28 10:33:04
    {"Snatched 2017 1080p DSNP WEB-DL H264-GPRS.mkv": 5040986992, "Torrent Downloaded From UIndex.org .txt": 129, "Snatched 2017 1080p DSNP WEB-DL H264-GPRS.mkv.nfo": 1053}
创建时间: 2025-10-06 08:20:52 大小:4.69 GB 文件数量:3 热度:0
    {"Torrent Downloaded From UIndex.org .txt": 129, "Snatched 2017 1080p HMAX WEB-DL DDP 5 1 H 265-PiRaTeS.mkv": 1707729313, "Snatched 2017 1080p HMAX WEB-DL DDP 5 1 H 265-PiRaTeS.mkv.nfo": 787}
创建时间: 2025-10-07 16:26:27 大小:1.59 GB 文件数量:3 热度:1 最近下载:2025-10-07 22:52:03
    {"Snatched.from.Mommy.2021.PL.720p.WEB-DL.XviD.AC3-R22.avi": 2536082444}
创建时间: 2025-11-25 17:03:26 大小:2.36 GB 文件数量:1 热度:0
    {"ZAPRASZAMY - DEVIL-TORRENTS.PL.html": 557, "Matczyna furia Snatched from Mommy (2021) [WEB-DL.XviD-GR4PE] [ Lektor PL].avi": 733036544}
创建时间: 2025-11-26 14:24:17 大小:699.08 MB 文件数量:2 热度:0
    {"Torrent Downloaded From UIndex.org .txt": 129, "Girl Taken S01E01 Snatched 720p AMZN WEB-DL DDP5 1 H 264-RAWR.mkv": 1500363704, "Girl Taken S01E01 Snatched 720p AMZN WEB-DL DDP5 1 H 264-RAWR.mkv.nfo": 826}
创建时间: 2026-01-13 08:40:33 大小:1.4 GB 文件数量:3 热度:0
    {"Torrent Downloaded From UIndex.org .txt": 129, "Girl Taken S01E01 Snatched 2160p AMZN WEB-DL DDP5 1 H 265-RAWR.mkv": 5638791637, "Girl Taken S01E01 Snatched 2160p AMZN WEB-DL DDP5 1 H 265-RAWR.mkv.nfo": 831}
创建时间: 2026-01-24 16:45:29 大小:5.25 GB 文件数量:3 热度:0